Time;durP1;ratioP1;P1;durP2;ratioP2;P2;SDS_P1;SDS_P2;PMS_P1;PMS_P2;Temp;Humidity;BMP_temperature;BMP_pressure;BME280_temperature;BME280_humidity;BME280_pressure;Samples;Min_cycle;Max_cycle;Signal;HPM_P1;HPM_P2
2023/12/12 00:01:50;;;;;;;;;1.00;1.00;;;;;9.01;95.61;100703.47;5098214;28;10088;-69
2023/12/12 00:04:17;;;;;;;;;3.00;2.00;;;;;9.00;95.78;100715.22;5109356;28;10059;-71
2023/12/12 00:06:43;;;;;;;;;1.25;1.00;;;;;9.00;95.73;100718.75;5109153;28;10084;-70
2023/12/12 00:09:10;;;;;;;;;2.00;1.00;;;;;9.01;95.63;100715.03;5101540;28;10074;-67
2023/12/12 00:11:36;;;;;;;;;2.25;1.50;;;;;9.00;95.63;100721.41;5091630;28;9772;-70
2023/12/12 00:14:03;;;;;;;;;1.00;1.00;;;;;9.01;95.31;100716.88;5104069;28;10042;-69
2023/12/12 00:16:29;;;;;;;;;1.00;1.00;;;;;8.99;95.54;100708.16;5109674;28;10242;-69
2023/12/12 00:18:56;;;;;;;;;2.00;2.00;;;;;8.98;95.83;100711.88;5091704;28;9812;-69
2023/12/12 00:21:22;;;;;;;;;2.00;2.00;;;;;8.98;95.51;100715.38;5088720;28;9997;-69
2023/12/12 00:23:49;;;;;;;;;1.75;0.75;;;;;8.99;95.26;100713.53;5093846;28;10139;-71
2023/12/12 00:26:15;;;;;;;;;4.00;1.00;;;;;9.00;95.89;100720.59;5093250;28;10042;-72
2023/12/12 00:28:42;;;;;;;;;2.50;2.50;;;;;8.97;95.80;100718.28;5101152;28;10067;-72
2023/12/12 00:31:08;;;;;;;;;1.50;1.25;;;;;8.96;95.38;100711.25;5091509;28;10166;-71
2023/12/12 00:33:35;;;;;;;;;2.00;0.75;;;;;8.96;95.75;100712.06;5091732;28;10063;-68
2023/12/12 00:36:01;;;;;;;;;2.00;2.00;;;;;8.95;95.95;100706.88;5106013;28;9881;-70
2023/12/12 00:38:30;;;;;;;;;1.25;1.25;;;;;8.90;95.33;100708.28;5111113;28;10063;-70
2023/12/12 00:40:57;;;;;;;;;2.25;2.25;;;;;8.90;95.48;100715.50;5082898;28;10213;-70
2023/12/12 00:43:26;;;;;;;;;2.25;2.25;;;;;8.90;95.95;100710.94;5106342;28;10142;-71
2023/12/12 00:45:53;;;;;;;;;1.00;1.00;;;;;8.89;95.87;100714.66;5102366;28;10302;-70
2023/12/12 00:48:25;;;;;;;;;3.50;2.00;;;;;8.99;95.59;100711.69;5075741;27;13432;-70
2023/12/12 00:50:52;;;;;;;;;2.00;2.00;;;;;8.92;95.77;100713.47;5062120;28;10879;-71
2023/12/12 00:53:18;;;;;;;;;2.50;2.50;;;;;8.90;95.70;100710.13;5065963;28;10234;-70
2023/12/12 00:55:45;;;;;;;;;1.25;1.00;;;;;8.90;95.68;100716.31;5059006;28;10020;-70
2023/12/12 00:58:12;;;;;;;;;2.75;1.50;;;;;8.90;95.64;100705.59;5063520;28;9889;-68
2023/12/12 01:00:38;;;;;;;;;2.75;1.50;;;;;8.91;95.86;100706.41;5065948;28;10006;-71
2023/12/12 01:03:05;;;;;;;;;0.00;0.00;;;;;8.91;95.59;100704.59;5067337;28;9947;-68
2023/12/12 01:05:31;;;;;;;;;1.75;1.75;;;;;8.91;95.43;100711.78;5059504;28;10014;-68
2023/12/12 01:07:58;;;;;;;;;1.00;1.00;;;;;8.90;95.41;100715.50;5060182;28;9944;-69
2023/12/12 01:10:24;;;;;;;;;2.00;2.00;;;;;8.89;95.72;100708.47;5063741;28;9884;-70
2023/12/12 01:12:51;;;;;;;;;1.00;0.50;;;;;8.86;95.40;100706.16;5063156;28;9833;-70
2023/12/12 01:15:17;;;;;;;;;2.00;1.75;;;;;8.85;95.25;100707.19;5060721;28;10465;-70
2023/12/12 01:17:44;;;;;;;;;1.00;1.00;;;;;8.83;95.42;100703.81;5065920;28;9940;-68
2023/12/12 01:20:11;;;;;;;;;1.00;1.00;;;;;8.79;95.71;100703.41;5067102;28;9817;-70
2023/12/12 01:22:37;;;;;;;;;1.00;1.00;;;;;8.75;95.06;100707.47;5065844;28;9880;-70
2023/12/12 01:25:05;;;;;;;;;1.25;1.00;;;;;8.73;95.31;100711.34;5062578;28;10000;-70
2023/12/12 01:27:31;;;;;;;;;4.50;1.75;;;;;8.69;95.20;100700.16;5063631;28;9990;-70
2023/12/12 01:29:58;;;;;;;;;0.00;0.00;;;;;8.68;95.59;100711.91;5049442;28;10083;-69
2023/12/12 01:32:25;;;;;;;;;2.00;2.00;;;;;8.66;95.38;100708.56;5051790;28;10020;-70
2023/12/12 01:34:51;;;;;;;;;2.25;2.25;;;;;8.64;95.07;100702.56;5065451;28;10051;-70
2023/12/12 01:37:18;;;;;;;;;1.50;1.00;;;;;8.62;94.80;100699.22;5062238;28;10141;-70
2023/12/12 01:39:44;;;;;;;;;2.00;2.00;;;;;8.59;95.25;100702.28;5066378;28;10055;-69
2023/12/12 01:42:11;;;;;;;;;3.50;1.75;;;;;8.56;95.08;100706.16;5058775;28;10133;-71
2023/12/12 01:44:37;;;;;;;;;1.00;1.00;;;;;8.54;95.05;100704.66;5064361;28;10126;-70
2023/12/12 01:47:04;;;;;;;;;0.25;0.25;;;;;8.52;94.74;100698.66;5072924;28;10050;-71
2023/12/12 01:49:31;;;;;;;;;0.50;0.50;;;;;8.50;94.84;100698.00;5084445;28;10237;-70
2023/12/12 01:51:58;;;;;;;;;1.00;1.00;;;;;8.48;95.19;100700.06;5079411;28;10031;-71
2023/12/12 01:54:25;;;;;;;;;1.00;1.00;;;;;8.44;94.79;100686.19;5081866;28;10055;-70
2023/12/12 01:56:53;;;;;;;;;1.75;0.75;;;;;8.41;94.58;100690.03;5081469;28;10786;-69
2023/12/12 01:59:21;;;;;;;;;1.00;1.00;;;;;8.39;95.01;100689.41;5068281;28;10151;-71
2023/12/12 02:01:52;;;;;;;;;1.75;1.25;;;;;8.37;94.72;100688.75;5060970;28;10277;-71
2023/12/12 02:04:19;;;;;;;;;0.00;0.00;;;;;8.36;94.65;100680.88;5067562;28;10283;-70
2023/12/12 02:06:48;;;;;;;;;1.50;1.25;;;;;8.35;94.76;100688.09;5067501;28;9979;-69
2023/12/12 02:09:15;;;;;;;;;3.75;2.00;;;;;8.32;94.73;100682.25;5071096;28;10866;-71
2023/12/12 02:11:41;;;;;;;;;2.00;2.00;;;;;8.30;94.56;100684.25;5067504;28;10285;-68
2023/12/12 02:14:11;;;;;;;;;2.50;2.50;;;;;8.27;94.32;100679.28;5067878;28;10127;-69
2023/12/12 02:16:38;;;;;;;;;1.00;1.00;;;;;8.22;94.05;100684.34;5054172;28;10285;-70
2023/12/12 02:19:05;;;;;;;;;1.50;1.25;;;;;8.18;94.36;100681.19;5064953;28;10129;-70
2023/12/12 02:21:32;;;;;;;;;1.00;1.00;;;;;8.14;94.32;100675.38;5067706;28;10209;-69
2023/12/12 02:23:58;;;;;;;;;1.25;1.25;;;;;8.12;94.19;100673.91;5069616;28;10357;-69
2023/12/12 02:26:25;;;;;;;;;2.00;2.00;;;;;8.11;94.22;100674.91;5071013;28;10214;-70
2023/12/12 02:28:52;;;;;;;;;1.00;1.00;;;;;8.09;94.23;100671.56;5064527;28;10300;-71
2023/12/12 02:31:18;;;;;;;;;3.00;3.00;;;;;8.08;94.20;100686.00;5064222;28;10412;-70
2023/12/12 02:33:45;;;;;;;;;1.00;1.00;;;;;8.05;93.67;100683.66;5069475;28;10418;-70
2023/12/12 02:36:11;;;;;;;;;1.00;1.00;;;;;7.99;93.96;100679.88;5072538;28;10262;-70
2023/12/12 02:38:38;;;;;;;;;2.00;1.00;;;;;7.97;94.43;100681.91;5072083;28;10297;-70
2023/12/12 02:41:04;;;;;;;;;0.00;0.00;;;;;7.95;93.95;100683.94;5069754;28;11065;-68
2023/12/12 02:43:30;;;;;;;;;1.25;1.25;;;;;7.93;94.28;100681.41;5069373;28;10115;-70
2023/12/12 02:45:57;;;;;;;;;1.25;1.25;;;;;7.89;93.53;100677.44;5069087;28;10274;-70
2023/12/12 02:48:23;;;;;;;;;1.50;1.50;;;;;7.89;94.25;100673.94;5061728;28;10286;-70
2023/12/12 02:50:50;;;;;;;;;6.75;5.25;;;;;7.85;93.66;100678.81;5062243;28;10232;-70
2023/12/12 02:53:16;;;;;;;;;6.50;5.00;;;;;7.85;93.61;100673.44;5065218;28;10701;-69
2023/12/12 02:55:43;;;;;;;;;5.00;5.00;;;;;7.84;93.88;100677.16;5057749;28;10494;-70
2023/12/12 02:58:09;;;;;;;;;6.50;6.00;;;;;7.83;93.95;100677.34;5064262;28;10436;-70
2023/12/12 03:00:36;;;;;;;;;6.00;5.50;;;;;7.84;93.67;100677.16;5070611;28;10640;-70
2023/12/12 03:03:02;;;;;;;;;4.75;4.75;;;;;7.85;93.60;100677.97;5071662;28;10700;-69
2023/12/12 03:05:30;;;;;;;;;6.00;5.00;;;;;7.86;93.90;100667.09;5070602;28;10516;-69
2023/12/12 03:07:56;;;;;;;;;7.00;5.25;;;;;7.86;94.03;100661.75;5058390;28;11202;-69
2023/12/12 03:10:23;;;;;;;;;6.50;6.00;;;;;7.88;93.75;100665.06;5066045;28;10509;-69
2023/12/12 03:12:49;;;;;;;;;6.25;6.25;;;;;7.87;93.66;100666.06;5071447;28;10444;-70
2023/12/12 03:15:16;;;;;;;;;7.00;6.00;;;;;7.87;93.53;100671.44;5068890;28;10763;-68
2023/12/12 03:17:42;;;;;;;;;9.25;7.00;;;;;7.86;93.69;100660.91;5062645;28;10525;-69
2023/12/12 03:20:09;;;;;;;;;6.25;6.25;;;;;7.87;93.63;100665.25;5065537;28;10663;-70
2023/12/12 03:22:36;;;;;;;;;6.00;5.00;;;;;7.87;93.54;100670.59;5063735;28;10594;-70
2023/12/12 03:25:02;;;;;;;;;6.00;6.00;;;;;7.88;93.25;100662.38;5066941;28;10375;-69
2023/12/12 03:27:29;;;;;;;;;4.50;4.50;;;;;7.88;93.79;100657.03;5064199;28;10513;-68
2023/12/12 03:29:56;;;;;;;;;6.00;6.00;;;;;7.87;93.64;100660.72;5070044;28;10319;-68
2023/12/12 03:32:23;;;;;;;;;9.00;5.00;;;;;7.87;93.33;100658.03;5069302;28;10357;-70
2023/12/12 03:34:49;;;;;;;;;6.25;6.00;;;;;7.87;93.95;100660.72;5052344;28;10607;-70
2023/12/12 03:37:16;;;;;;;;;7.75;6.50;;;;;7.89;93.62;100660.53;5062029;28;10562;-67
2023/12/12 03:39:43;;;;;;;;;6.75;6.75;;;;;7.88;93.78;100656.19;5060733;28;10392;-69
2023/12/12 03:42:09;;;;;;;;;8.50;8.50;;;;;7.88;93.15;100651.66;5066443;28;10408;-69
2023/12/12 03:44:36;;;;;;;;;9.00;6.75;;;;;7.89;93.30;100653.31;5065896;28;10622;-69
2023/12/12 03:47:02;;;;;;;;;3.50;3.50;;;;;7.89;93.44;100652.50;5069924;28;10384;-70
2023/12/12 03:49:29;;;;;;;;;9.25;7.00;;;;;7.90;93.64;100655.00;5066634;28;10550;-70
2023/12/12 03:51:55;;;;;;;;;6.75;6.00;;;;;7.88;93.18;100651.66;5063040;28;10426;-70
2023/12/12 03:54:22;;;;;;;;;9.75;7.75;;;;;7.88;93.21;100656.19;5061006;28;10365;-69
2023/12/12 03:56:51;;;;;;;;;8.00;8.00;;;;;7.86;92.77;100656.38;5066632;28;10585;-70
2023/12/12 03:59:17;;;;;;;;;6.00;6.00;;;;;7.84;93.31;100650.34;5067737;28;11348;-70
2023/12/12 04:01:48;;;;;;;;;11.00;11.00;;;;;7.83;93.32;100647.88;5064321;28;10582;-70
2023/12/12 04:04:17;;;;;;;;;10.50;10.50;;;;;7.82;93.09;100651.53;5062406;28;10743;-70
2023/12/12 04:06:47;;;;;;;;;16.50;14.00;;;;;7.79;93.17;100636.69;5070409;28;11363;-70
2023/12/12 04:09:15;;;;;;;;;9.50;9.50;;;;;7.79;93.10;100644.72;5059607;28;10626;-70
2023/12/12 04:11:41;;;;;;;;;13.50;13.25;;;;;7.78;93.38;100631.47;5060124;28;10604;-70
2023/12/12 04:14:08;;;;;;;;;14.00;11.25;;;;;7.77;93.05;100633.31;5062725;28;10864;-69
2023/12/12 04:16:34;;;;;;;;;10.50;10.50;;;;;7.81;93.26;100631.94;5069074;28;10624;-70
2023/12/12 04:19:01;;;;;;;;;14.75;13.25;;;;;7.78;93.30;100628.81;5066734;28;10816;-68
2023/12/12 04:21:27;;;;;;;;;14.00;13.00;;;;;7.79;93.47;100631.31;5068831;28;10903;-70
2023/12/12 04:23:54;;;;;;;;;14.75;14.00;;;;;7.79;93.55;100628.63;5069380;28;10701;-70
2023/12/12 04:26:20;;;;;;;;;14.50;13.00;;;;;7.81;93.59;100628.44;5060413;28;10891;-70
2023/12/12 04:28:47;;;;;;;;;14.75;13.75;;;;;7.82;93.37;100622.91;5062197;28;10794;-70
2023/12/12 04:31:17;;;;;;;;;10.75;10.50;;;;;7.83;93.26;100616.53;5064484;28;10706;-69
2023/12/12 04:33:43;;;;;;;;;15.25;11.25;;;;;7.83;93.40;100610.34;5054931;28;10837;-69
2023/12/12 04:36:14;;;;;;;;;14.50;11.00;;;;;7.85;93.49;100614.50;5069282;28;10780;-70
2023/12/12 04:38:41;;;;;;;;;17.25;17.00;;;;;7.85;93.19;100621.72;5063519;28;10771;-71
2023/12/12 04:41:08;;;;;;;;;15.50;14.00;;;;;7.83;93.04;100613.88;5061539;28;11502;-70
2023/12/12 04:43:35;;;;;;;;;14.00;14.00;;;;;7.82;93.35;100614.03;5062316;28;10778;-71
2023/12/12 04:46:02;;;;;;;;;16.50;14.75;;;;;7.81;93.14;100612.38;5065203;28;10980;-70
2023/12/12 04:48:29;;;;;;;;;22.25;17.00;;;;;7.80;93.31;100611.53;5050727;28;10912;-71
2023/12/12 04:50:55;;;;;;;;;17.25;16.00;;;;;7.77;92.83;100605.72;5068967;28;10941;-70
2023/12/12 04:53:23;;;;;;;;;13.25;13.00;;;;;7.76;93.18;100602.19;5069118;28;10937;-69
2023/12/12 04:55:49;;;;;;;;;17.75;17.75;;;;;7.73;93.65;100607.09;5068457;28;10926;-70
2023/12/12 04:58:16;;;;;;;;;21.00;17.75;;;;;7.71;93.21;100601.91;5066680;28;10952;-67
2023/12/12 05:00:42;;;;;;;;;16.25;14.00;;;;;7.70;93.43;100602.94;5067097;28;10922;-69
2023/12/12 05:03:09;;;;;;;;;19.25;17.50;;;;;7.69;93.47;100593.22;5063058;28;10858;-70
2023/12/12 05:05:35;;;;;;;;;16.50;16.50;;;;;7.71;93.83;100599.25;5067281;28;11025;-70
2023/12/12 05:08:02;;;;;;;;;24.50;19.00;;;;;7.70;93.84;100594.91;5069231;28;10878;-68
2023/12/12 05:10:29;;;;;;;;;20.25;15.50;;;;;7.68;93.64;100594.22;5069815;28;10852;-69
2023/12/12 05:12:55;;;;;;;;;23.50;16.00;;;;;7.66;93.47;100597.09;5061140;28;11020;-70
2023/12/12 05:15:22;;;;;;;;;23.75;21.25;;;;;7.65;93.48;100598.09;5069655;28;10938;-70
2023/12/12 05:17:48;;;;;;;;;19.25;15.25;;;;;7.67;94.09;100603.28;5062926;28;11133;-69
2023/12/12 05:20:15;;;;;;;;;24.75;19.75;;;;;7.64;93.54;100592.94;5064307;28;10842;-69
2023/12/12 05:22:42;;;;;;;;;22.75;19.75;;;;;7.64;93.38;100596.44;5066617;28;11180;-70
2023/12/12 05:25:08;;;;;;;;;21.75;19.00;;;;;7.64;93.66;100595.63;5068472;28;11091;-70
2023/12/12 05:27:35;;;;;;;;;20.50;18.25;;;;;7.60;93.21;100587.09;5068498;28;11191;-67
2023/12/12 05:30:01;;;;;;;;;16.75;16.50;;;;;7.60;93.68;100581.75;5063211;28;11930;-70
2023/12/12 05:32:28;;;;;;;;;19.25;18.00;;;;;7.62;93.78;100587.75;5069361;28;11046;-69
2023/12/12 05:34:55;;;;;;;;;24.75;20.75;;;;;7.64;93.98;100582.22;5065427;28;10927;-70
2023/12/12 05:37:22;;;;;;;;;22.00;20.25;;;;;7.64;93.96;100582.22;5073355;28;11146;-69
2023/12/12 05:39:49;;;;;;;;;17.50;16.50;;;;;7.66;93.71;100585.56;5054066;28;10998;-70
2023/12/12 05:42:16;;;;;;;;;20.25;18.75;;;;;7.66;93.67;100588.25;5050894;28;11089;-68
2023/12/12 05:44:42;;;;;;;;;21.50;21.50;;;;;7.62;93.95;100579.72;5062783;28;11198;-70
2023/12/12 05:47:09;;;;;;;;;22.25;18.75;;;;;7.60;93.61;100576.38;5072103;28;11175;-70
2023/12/12 05:49:36;;;;;;;;;24.00;18.75;;;;;7.60;93.37;100576.38;5071455;28;10961;-69
2023/12/12 05:52:04;;;;;;;;;23.50;22.50;;;;;7.58;93.77;100570.41;5065749;28;11021;-70
2023/12/12 05:54:30;;;;;;;;;28.25;22.75;;;;;7.58;93.65;100566.88;5071960;28;11512;-69
2023/12/12 05:56:57;;;;;;;;;21.25;20.50;;;;;7.61;93.95;100574.53;5068840;28;11281;-70
2023/12/12 05:59:23;;;;;;;;;23.75;20.00;;;;;7.60;93.31;100568.34;5061223;28;11062;-67
2023/12/12 06:01:50;;;;;;;;;27.25;25.25;;;;;7.56;93.47;100561.69;5072884;28;11113;-69
2023/12/12 06:04:17;;;;;;;;;24.25;22.75;;;;;7.56;93.58;100560.88;5059374;28;11622;-69
2023/12/12 06:06:44;;;;;;;;;25.50;23.25;;;;;7.55;93.86;100565.38;5071785;28;11108;-71
2023/12/12 06:09:11;;;;;;;;;22.25;21.50;;;;;7.56;94.02;100561.69;5072324;28;10957;-70
2023/12/12 06:11:38;;;;;;;;;24.50;22.75;;;;;7.55;93.99;100562.72;5064073;28;11283;-69
2023/12/12 06:14:05;;;;;;;;;26.50;24.25;;;;;7.56;94.11;100560.88;5053199;28;11920;-70
2023/12/12 06:16:33;;;;;;;;;27.25;23.25;;;;;7.55;93.40;100551.16;5051534;28;11520;-70
2023/12/12 06:19:04;;;;;;;;;27.75;26.50;;;;;7.54;93.96;100560.22;5058867;28;11602;-69
2023/12/12 06:21:34;;;;;;;;;19.25;17.00;;;;;7.53;94.03;100550.50;5063408;28;11492;-70
2023/12/12 06:24:01;;;;;;;;;27.50;24.25;;;;;7.46;93.54;100546.91;5066911;28;11107;-69
2023/12/12 06:26:32;;;;;;;;;25.00;21.75;;;;;7.49;94.14;100549.19;5071163;28;11068;-69
2023/12/12 06:28:59;;;;;;;;;25.75;23.00;;;;;7.48;93.75;100548.38;5055326;28;11187;-68
2023/12/12 06:31:25;;;;;;;;;29.00;25.25;;;;;7.48;94.28;100551.06;5059517;28;11289;-69
2023/12/12 06:33:52;;;;;;;;;21.75;19.75;;;;;7.49;93.86;100550.03;5068377;28;11187;-66
2023/12/12 06:36:19;;;;;;;;;24.25;23.25;;;;;7.51;94.19;100547.19;5057141;28;11477;-69
2023/12/12 06:38:46;;;;;;;;;28.50;24.50;;;;;7.49;94.36;100543.84;5071628;28;11492;-70
2023/12/12 06:41:12;;;;;;;;;25.00;24.25;;;;;7.50;94.32;100546.38;5053195;28;11513;-70
2023/12/12 06:43:39;;;;;;;;;26.00;22.50;;;;;7.51;94.21;100544.50;5055143;28;11486;-69
2023/12/12 06:46:06;;;;;;;;;25.75;25.75;;;;;7.51;94.43;100539.97;5065546;28;11491;-69
2023/12/12 06:48:34;;;;;;;;;24.50;22.00;;;;;7.51;94.47;100534.63;5070118;28;12033;-70
2023/12/12 06:51:01;;;;;;;;;28.00;26.75;;;;;7.50;94.04;100532.97;5065544;28;11519;-67
2023/12/12 06:53:28;;;;;;;;;29.00;27.50;;;;;7.49;93.50;100520.56;5062485;28;11520;-70
2023/12/12 06:55:55;;;;;;;;;26.25;24.50;;;;;7.50;93.97;100529.47;5070955;28;11263;-70
2023/12/12 06:58:22;;;;;;;;;23.50;22.00;;;;;7.48;94.14;100524.28;5071574;28;11486;-69
2023/12/12 07:00:49;;;;;;;;;26.75;25.00;;;;;7.46;94.42;100522.81;5060739;28;11956;-70
2023/12/12 07:03:15;;;;;;;;;20.00;19.00;;;;;7.44;94.22;100520.28;5061422;28;11516;-69
2023/12/12 07:05:42;;;;;;;;;28.25;23.75;;;;;7.44;94.51;100509.56;5050069;28;11203;-70
2023/12/12 07:08:09;;;;;;;;;31.25;29.75;;;;;7.39;94.18;100509.31;5056675;28;11625;-70
2023/12/12 07:10:35;;;;;;;;;32.00;25.75;;;;;7.29;94.56;100500.69;5063968;28;11509;-69
2023/12/12 07:13:01;;;;;;;;;26.75;24.00;;;;;7.28;94.59;100494.50;5059413;28;11557;-68
2023/12/12 07:15:28;;;;;;;;;29.50;23.50;;;;;7.29;94.67;100495.31;5060348;28;11270;-69
2023/12/12 07:17:55;;;;;;;;;23.50;22.00;;;;;7.31;95.22;100493.31;5062499;28;11515;-70
2023/12/12 07:20:21;;;;;;;;;30.50;26.75;;;;;7.32;94.43;100501.16;5064221;28;11307;-70
2023/12/12 07:22:48;;;;;;;;;35.50;27.50;;;;;7.30;95.11;100492.47;5062887;28;11514;-68
2023/12/12 07:25:15;;;;;;;;;32.25;26.75;;;;;7.30;94.64;100489.81;5058372;28;11513;-70
2023/12/12 07:27:41;;;;;;;;;30.00;25.75;;;;;7.31;94.57;100488.78;5060288;28;11263;-69
2023/12/12 07:30:10;;;;;;;;;29.50;26.75;;;;;7.30;95.44;100483.63;5063604;28;12304;-67
2023/12/12 07:32:37;;;;;;;;;24.75;21.50;;;;;7.34;95.46;100480.41;5060741;28;11475;-70
2023/12/12 07:35:04;;;;;;;;;27.00;24.25;;;;;7.35;94.69;100474.03;5062628;28;11474;-70
2023/12/12 07:37:31;;;;;;;;;37.00;32.25;;;;;7.32;95.24;100471.69;5054566;28;11318;-71
2023/12/12 07:39:58;;;;;;;;;28.50;27.50;;;;;7.32;94.96;100466.34;5052925;28;11495;-70
2023/12/12 07:42:24;;;;;;;;;37.25;32.25;;;;;7.33;95.80;100469.84;5064398;28;11176;-68
2023/12/12 07:44:54;;;;;;;;;27.25;25.50;;;;;7.36;95.66;100467.66;5070871;28;12040;-71
2023/12/12 07:47:20;;;;;;;;;27.25;24.25;;;;;7.38;95.68;100462.13;5069154;28;11501;-70
2023/12/12 07:49:57;;;;;;;;;38.00;31.25;;;;;7.37;95.89;100465.78;5068985;28;11209;-70
2023/12/12 07:52:24;;;;;;;;;27.75;26.50;;;;;7.36;95.36;100456.94;5070789;28;11482;-70
2023/12/12 07:54:51;;;;;;;;;29.75;27.75;;;;;7.35;95.43;100457.94;5049205;28;11508;-68
2023/12/12 07:57:17;;;;;;;;;31.75;25.25;;;;;7.37;95.76;100466.66;5054952;28;11502;-70
2023/12/12 07:59:44;;;;;;;;;31.50;27.00;;;;;7.38;95.96;100456.78;5070262;28;11510;-70
2023/12/12 08:02:11;;;;;;;;;24.25;22.00;;;;;7.40;95.87;100460.91;5056827;28;11524;-68
2023/12/12 08:04:37;;;;;;;;;29.00;26.75;;;;;7.36;96.44;100450.75;5049278;28;11291;-69
2023/12/12 08:07:04;;;;;;;;;29.75;24.25;;;;;7.37;96.77;100453.25;5050475;28;12236;-69
2023/12/12 08:09:31;;;;;;;;;33.25;30.50;;;;;7.37;96.13;100445.22;5049319;28;11217;-67
2023/12/12 08:11:57;;;;;;;;;23.75;23.25;;;;;7.38;96.98;100438.03;5056357;28;11516;-70
2023/12/12 08:14:24;;;;;;;;;28.25;23.00;;;;;7.42;96.65;100444.69;5066618;28;11250;-69
2023/12/12 08:16:51;;;;;;;;;23.50;21.00;;;;;7.44;97.18;100437.28;5063797;28;11166;-72
2023/12/12 08:19:17;;;;;;;;;24.50;22.25;;;;;7.48;97.07;100432.38;5066746;28;11150;-66
2023/12/12 08:21:44;;;;;;;;;31.50;27.00;;;;;7.49;97.20;100429.50;5070045;28;11178;-68
2023/12/12 08:24:10;;;;;;;;;31.50;26.75;;;;;7.49;96.80;100426.00;5069693;28;11187;-69
2023/12/12 08:26:43;;;;;;;;;24.25;21.25;;;;;7.50;97.67;100427.69;5060003;28;11202;-70
2023/12/12 08:29:11;;;;;;;;;22.00;22.00;;;;;7.49;97.56;100429.50;5048627;28;11047;-70
2023/12/12 08:31:37;;;;;;;;;20.50;18.50;;;;;7.53;97.64;100427.31;5062468;28;11120;-70
2023/12/12 08:34:04;;;;;;;;;24.25;18.75;;;;;7.51;97.39;100415.97;5067241;28;11032;-68
2023/12/12 08:36:31;;;;;;;;;23.00;19.00;;;;;7.54;97.70;100418.28;5050314;28;11769;-70
2023/12/12 08:38:59;;;;;;;;;21.00;20.00;;;;;7.58;98.19;100414.22;5064876;28;11881;-70
2023/12/12 08:41:28;;;;;;;;;14.25;14.25;;;;;7.67;99.03;100415.78;5067904;28;11723;-70
2023/12/12 08:43:55;;;;;;;;;23.25;19.50;;;;;7.65;98.15;100413.25;5069944;28;10896;-70
2023/12/12 08:46:26;;;;;;;;;18.00;17.00;;;;;7.70;98.34;100407.38;5052527;28;11929;-70
2023/12/12 08:48:57;;;;;;;;;16.25;15.00;;;;;7.73;97.91;100406.16;5050535;28;11156;-70
2023/12/12 08:51:26;;;;;;;;;13.25;12.25;;;;;7.77;98.51;100408.25;5049692;28;10797;-68
2023/12/12 08:53:52;;;;;;;;;14.75;13.75;;;;;7.78;98.46;100407.25;5069760;28;10861;-68
2023/12/12 08:56:19;;;;;;;;;22.00;17.50;;;;;7.77;98.20;100405.59;5068325;28;10800;-70
2023/12/12 08:58:49;;;;;;;;;17.75;15.00;;;;;7.82;98.18;100403.19;5068266;28;10872;-70
2023/12/12 09:01:16;;;;;;;;;13.75;13.00;;;;;7.84;98.30;100403.81;5069840;28;10972;-70
2023/12/12 09:03:42;;;;;;;;;13.25;13.25;;;;;7.85;98.65;100392.06;5067102;28;10794;-70
2023/12/12 09:06:09;;;;;;;;;9.75;9.75;;;;;7.88;98.42;100398.94;5048089;28;10772;-69
2023/12/12 09:08:36;;;;;;;;;17.00;14.50;;;;;7.91;98.24;100394.03;5069126;28;10734;-69
2023/12/12 09:11:03;;;;;;;;;9.25;8.50;;;;;7.92;98.28;100395.69;5072194;28;10764;-70
2023/12/12 09:13:29;;;;;;;;;21.50;17.00;;;;;7.91;98.69;100390.50;5073712;28;10627;-70
2023/12/12 09:15:56;;;;;;;;;14.50;14.25;;;;;7.95;98.48;100385.63;5072515;28;10799;-71
2023/12/12 09:18:22;;;;;;;;;18.75;15.00;;;;;7.95;98.85;100385.63;5073252;28;10869;-70
2023/12/12 09:20:49;;;;;;;;;14.00;13.25;;;;;7.94;97.92;100384.78;5067968;28;10849;-69
2023/12/12 09:23:16;;;;;;;;;24.75;20.00;;;;;7.92;98.52;100370.72;5053468;28;10746;-70
2023/12/12 09:25:43;;;;;;;;;16.25;15.50;;;;;7.94;98.93;100360.66;5051733;28;10716;-70
2023/12/12 09:28:09;;;;;;;;;20.25;18.00;;;;;7.97;98.94;100354.09;5072062;28;10801;-69
2023/12/12 09:30:36;;;;;;;;;22.50;18.25;;;;;7.97;98.71;100359.44;5069243;28;10777;-70
2023/12/12 09:33:02;;;;;;;;;21.75;18.00;;;;;7.95;98.79;100350.78;5061755;28;10809;-70
2023/12/12 09:35:29;;;;;;;;;20.75;18.00;;;;;7.92;98.83;100352.78;5067539;28;10812;-70
2023/12/12 09:37:56;;;;;;;;;23.50;18.50;;;;;7.93;99.09;100342.91;5071839;28;10729;-70
2023/12/12 09:40:22;;;;;;;;;20.25;18.75;;;;;7.97;99.51;100348.72;5072688;28;11533;-70
2023/12/12 09:42:49;;;;;;;;;25.00;20.75;;;;;7.97;98.80;100346.88;5073082;28;10625;-70
2023/12/12 09:45:16;;;;;;;;;22.00;17.75;;;;;7.92;98.91;100333.22;5053013;28;10890;-68
2023/12/12 09:47:44;;;;;;;;;24.00;21.75;;;;;7.97;99.56;100327.28;5071483;28;10887;-70
2023/12/12 09:50:12;;;;;;;;;22.75;17.00;;;;;8.01;99.24;100323.19;5072960;28;10942;-70
2023/12/12 09:52:39;;;;;;;;;17.25;16.25;;;;;8.04;98.96;100328.19;5072766;28;10924;-70
2023/12/12 09:55:06;;;;;;;;;23.25;19.50;;;;;8.05;99.63;100321.78;5071695;28;10781;-71
2023/12/12 09:57:33;;;;;;;;;20.75;18.25;;;;;8.07;99.43;100319.78;5070429;28;10923;-69
2023/12/12 10:00:00;;;;;;;;;24.25;20.00;;;;;8.10;99.35;100316.69;5072577;28;10930;-69
2023/12/12 10:02:38;;;;;;;;;16.75;15.50;;;;;8.12;99.26;100311.97;5072549;28;10617;-70
2023/12/12 10:05:09;;;;;;;;;18.75;18.75;;;;;8.12;98.74;100309.31;5070267;28;10851;-70
2023/12/12 10:07:36;;;;;;;;;21.00;19.00;;;;;8.13;99.62;100305.59;5071498;28;10800;-71
2023/12/12 10:10:07;;;;;;;;;26.00;18.75;;;;;8.17;99.50;100298.81;5072597;28;11132;-70
2023/12/12 10:12:35;;;;;;;;;20.25;15.75;;;;;8.21;99.25;100286.69;5072183;28;10685;-70
2023/12/12 10:15:01;;;;;;;;;21.50;18.75;;;;;8.17;99.06;100291.59;5059678;28;10673;-70
2023/12/12 10:17:37;;;;;;;;;19.50;17.75;;;;;8.21;99.17;100283.19;5054010;28;10788;-70
2023/12/12 10:20:05;;;;;;;;;22.50;19.50;;;;;8.21;99.74;100275.16;5071708;28;10890;-70
2023/12/12 10:22:31;;;;;;;;;25.00;20.00;;;;;8.24;99.37;100277.44;5052848;28;10827;-70
2023/12/12 10:25:14;;;;;;;;;23.25;22.50;;;;;8.23;99.57;100281.97;5051402;28;10703;-68
2023/12/12 10:27:42;;;;;;;;;18.75;18.25;;;;;8.25;99.75;100277.25;5052165;28;10878;-68
2023/12/12 10:30:11;;;;;;;;;15.00;15.00;;;;;8.36;99.50;100273.22;5052421;28;10821;-70
2023/12/12 10:32:38;;;;;;;;;25.25;18.75;;;;;8.37;99.65;100262.31;5052152;28;10644;-69
2023/12/12 10:35:05;;;;;;;;;26.00;21.50;;;;;8.35;99.33;100264.34;5052434;28;11005;-70
2023/12/12 10:37:31;;;;;;;;;21.75;18.25;;;;;8.31;99.90;100260.41;5061710;28;11512;-69
2023/12/12 10:40:12;;;;;;;;;21.25;15.00;;;;;8.37;99.67;100256.94;5044194;28;10553;-70
2023/12/12 10:42:42;;;;;;;;;17.75;15.50;;;;;8.38;99.89;100250.56;5052077;28;10687;-69
2023/12/12 10:45:12;;;;;;;;;15.00;15.00;;;;;8.44;99.58;100251.66;5052209;28;10589;-69
2023/12/12 10:47:45;;;;;;;;;14.25;12.00;;;;;8.48;99.76;100242.19;5051910;28;10651;-68
2023/12/12 10:50:13;;;;;;;;;14.00;11.50;;;;;8.50;99.17;100242.81;5052099;28;11290;-69
2023/12/12 10:52:42;;;;;;;;;18.25;15.75;;;;;8.50;99.62;100229.41;5067167;28;10704;-69
2023/12/12 10:55:19;;;;;;;;;17.00;14.75;;;;;8.52;99.14;100224.69;5055938;28;10509;-72
2023/12/12 10:57:47;;;;;;;;;16.00;12.00;;;;;8.54;99.41;100219.94;5057093;28;10773;-68
2023/12/12 11:00:16;;;;;;;;;13.00;11.50;;;;;8.56;98.97;100211.72;5066896;28;10568;-70
2023/12/12 11:02:46;;;;;;;;;20.25;15.25;;;;;8.52;99.39;100203.22;5067025;28;10645;-70
2023/12/12 11:05:14;;;;;;;;;12.75;12.00;;;;;8.56;99.45;100203.66;5051717;28;10585;-70
2023/12/12 11:07:46;;;;;;;;;20.75;14.00;;;;;8.55;99.54;100197.47;5033614;28;10554;-71
2023/12/12 11:10:14;;;;;;;;;10.50;10.50;;;;;8.60;98.91;100195.03;5052688;28;11298;-71
2023/12/12 11:12:56;;;;;;;;;10.25;9.75;;;;;8.61;98.84;100182.44;5070481;28;11261;-71
2023/12/12 11:15:25;;;;;;;;;17.75;11.00;;;;;8.64;99.61;100184.72;5071538;28;10558;-70
2023/12/12 11:17:52;;;;;;;;;10.75;10.75;;;;;8.65;99.23;100173.78;5069765;28;10586;-70
2023/12/12 11:20:20;;;;;;;;;13.75;12.00;;;;;8.65;99.08;100179.16;5071431;28;10275;-69
2023/12/12 11:22:50;;;;;;;;;18.75;17.00;;;;;8.65;98.47;100170.28;5071358;28;10360;-69
2023/12/12 11:25:21;;;;;;;;;12.25;11.00;;;;;8.65;98.63;100170.28;5071233;28;10464;-69